Sunday, July 22, 2018, 12:38 AM EDT
Back to Local

KRME, Griffiss Airfield

Location: Rome, NY, United States Lat: 43.233
Local Time: 12:38 AM EDT ( 4:38 GMT) Lon: -75.4
Time Zone: US/Eastern Elev: 505 ft

Show me the last for .
Show Decoded

2018-07-21 23:53 METAR KRME 220353Z AUTO 09009KT 10SM CLR 22/13 A2999 RMK AO2 SLP151 T02170128 =
2018-07-21 22:53 METAR KRME 220253Z AUTO 11008KT 10SM CLR 22/12 A3001 RMK AO2 SLP157 T02220122
                 50001 =
2018-07-21 21:53 METAR KRME 220153Z AUTO 12010KT 10SM CLR 23/11 A3002 RMK AO2 SLP161 T02280111 =
2018-07-21 20:53 METAR KRME 220053Z 12010KT 10SM CLR 23/11 A3001 RMK AO2 SLP158 T02330111 =
2018-07-21 19:53 METAR KRME 212353Z 11007KT 10SM CLR 24/12 A3001 RMK AO2 SLP157 T02440117 10283
                 20244 53002 =
2018-07-21 18:53 METAR KRME 212253Z 12010G20KT 10SM CLR 26/13 A3001 RMK AO2 SLP157 T02560128 =
2018-07-21 17:53 METAR KRME 212153Z 10011KT 10SM OVC100 26/13 A3000 RMK AO2 SLP155 T02610133 =
2018-07-21 16:53 METAR KRME 212053Z 11010KT 10SM OVC110 27/13 A3000 RMK AO2 SLP154 T02670133
                 58009 =
2018-07-21 15:53 METAR KRME 211953Z 11013G20KT 10SM BKN110 28/14 A3001 RMK AO2 SLP159 T02780139 =
2018-07-21 14:53 METAR KRME 211853Z 09012KT 10SM BKN100 28/14 A3002 RMK AO2 SLP162 T02780144 =
2018-07-21 13:53 METAR KRME 211753Z 11013G17KT 10SM SCT100 28/13 A3003 RMK AO2 SLP164 T02780133
                 10278 20194 58022 =
2018-07-21 12:53 METAR KRME 211653Z 10012G17KT 10SM CLR 26/13 A3006 RMK AO2 SLP174 T02560128 =
2018-07-21 11:53 METAR KRME 211553Z 14009G17KT 10SM CLR 25/14 A3008 RMK AO2 SLP180 T02500139 =
2018-07-21 10:53 METAR KRME 211453Z 13008KT 10SM CLR 24/14 A3010 RMK AO2 SLP187 T02390139 58003 =
2018-07-21 09:53 METAR KRME 211353Z 13008KT 10SM CLR 22/14 A3011 RMK AO2 SLP190 T02220139 =
2018-07-21 08:53 METAR KRME 211253Z 11009KT 10SM CLR 21/14 A3011 RMK AO2 SLP191 T02060139 =
2018-07-21 07:53 METAR KRME 211153Z 12007KT 10SM CLR 20/14 A3011 RMK AO2 SLP190 T02000139 10211
                 20167 50004 =
2018-07-21 06:53 METAR KRME 211053Z 13006KT 10SM CLR 18/13 A3011 RMK AO2 SLP192 T01780133 =
2018-07-21 05:53 METAR KRME 210953Z AUTO 11007KT 10SM CLR 17/13 A3011 RMK AO2 SLP190 T01670128 =
2018-07-21 04:53 METAR KRME 210853Z AUTO 10007KT 10SM CLR 18/13 A3010 RMK AO2 SLP186 T01830128
                 50005 =
2018-07-21 03:53 METAR KRME 210753Z AUTO 10006KT 10SM CLR 18/13 A3010 RMK AO2 SLP187 T01780133 =
2018-07-21 02:53 METAR KRME 210653Z AUTO 11009KT 10SM CLR 19/14 A3009 RMK AO2 SLP184 T01940139 =
2018-07-21 01:53 METAR KRME 210553Z AUTO 12008KT 10SM CLR 21/14 A3008 RMK AO2 SLP181 T02060139
                 10272 20206 53002 =
2018-07-21 00:53 METAR KRME 210453Z AUTO 13008KT 10SM CLR 22/14 A3007 RMK AO2 SLP178 T02170144
                 403110117 =

Support USWX by starting your Amazon purchase here.